sensor_id;sensor_type;location;lat;lon;timestamp;P1;durP1;ratioP1;P2;durP2;ratioP2
5008;SDS011;2523;51.058;6.922;2022-07-12T00:00:48;7.00;;;6.30;;
5008;SDS011;2523;51.058;6.922;2022-07-12T00:03:14;6.30;;;5.47;;
5008;SDS011;2523;51.058;6.922;2022-07-12T00:05:40;6.77;;;6.07;;
5008;SDS011;2523;51.058;6.922;2022-07-12T00:08:05;7.00;;;6.30;;
5008;SDS011;2523;51.058;6.922;2022-07-12T00:10:31;7.47;;;5.90;;
5008;SDS011;2523;51.058;6.922;2022-07-12T00:12:57;7.40;;;6.60;;
5008;SDS011;2523;51.058;6.922;2022-07-12T00:15:23;6.30;;;5.50;;
5008;SDS011;2523;51.058;6.922;2022-07-12T00:17:48;7.50;;;6.80;;
5008;SDS011;2523;51.058;6.922;2022-07-12T00:20:14;6.77;;;6.13;;
5008;SDS011;2523;51.058;6.922;2022-07-12T00:22:40;6.73;;;6.03;;
5008;SDS011;2523;51.058;6.922;2022-07-12T00:25:05;6.63;;;6.03;;
5008;SDS011;2523;51.058;6.922;2022-07-12T00:27:31;6.53;;;5.83;;
5008;SDS011;2523;51.058;6.922;2022-07-12T00:29:57;6.80;;;6.20;;
5008;SDS011;2523;51.058;6.922;2022-07-12T00:32:22;6.80;;;6.10;;
5008;SDS011;2523;51.058;6.922;2022-07-12T00:34:48;7.03;;;6.00;;
5008;SDS011;2523;51.058;6.922;2022-07-12T00:37:14;6.10;;;5.50;;
5008;SDS011;2523;51.058;6.922;2022-07-12T00:39:39;6.33;;;5.73;;
5008;SDS011;2523;51.058;6.922;2022-07-12T00:42:05;6.70;;;6.00;;
5008;SDS011;2523;51.058;6.922;2022-07-12T00:44:30;6.97;;;6.10;;
5008;SDS011;2523;51.058;6.922;2022-07-12T00:46:58;7.30;;;6.07;;
5008;SDS011;2523;51.058;6.922;2022-07-12T00:49:27;6.47;;;5.90;;
5008;SDS011;2523;51.058;6.922;2022-07-12T00:51:53;6.30;;;5.70;;
5008;SDS011;2523;51.058;6.922;2022-07-12T00:54:21;6.30;;;5.70;;
5008;SDS011;2523;51.058;6.922;2022-07-12T00:56:47;6.90;;;6.27;;
5008;SDS011;2523;51.058;6.922;2022-07-12T00:59:13;6.80;;;5.97;;
5008;SDS011;2523;51.058;6.922;2022-07-12T01:01:38;6.80;;;6.20;;
5008;SDS011;2523;51.058;6.922;2022-07-12T01:04:05;6.50;;;6.00;;
5008;SDS011;2523;51.058;6.922;2022-07-12T01:06:30;6.57;;;5.93;;
5008;SDS011;2523;51.058;6.922;2022-07-12T01:08:57;6.57;;;5.90;;
5008;SDS011;2523;51.058;6.922;2022-07-12T01:11:24;5.83;;;5.33;;
5008;SDS011;2523;51.058;6.922;2022-07-12T01:13:51;5.97;;;5.47;;
5008;SDS011;2523;51.058;6.922;2022-07-12T01:16:19;9.03;;;6.10;;
5008;SDS011;2523;51.058;6.922;2022-07-12T01:18:45;7.17;;;5.80;;
5008;SDS011;2523;51.058;6.922;2022-07-12T01:21:12;7.00;;;6.13;;
5008;SDS011;2523;51.058;6.922;2022-07-12T01:23:44;8.17;;;6.50;;
5008;SDS011;2523;51.058;6.922;2022-07-12T01:26:11;6.07;;;5.47;;
5008;SDS011;2523;51.058;6.922;2022-07-12T01:28:37;7.37;;;6.60;;
5008;SDS011;2523;51.058;6.922;2022-07-12T01:31:03;7.73;;;6.37;;
5008;SDS011;2523;51.058;6.922;2022-07-12T01:33:29;7.20;;;6.10;;
5008;SDS011;2523;51.058;6.922;2022-07-12T01:35:55;7.47;;;6.00;;
5008;SDS011;2523;51.058;6.922;2022-07-12T01:38:22;6.67;;;5.97;;
5008;SDS011;2523;51.058;6.922;2022-07-12T01:40:47;7.90;;;7.10;;
5008;SDS011;2523;51.058;6.922;2022-07-12T01:43:13;6.57;;;5.97;;
5008;SDS011;2523;51.058;6.922;2022-07-12T01:45:39;7.93;;;7.03;;
5008;SDS011;2523;51.058;6.922;2022-07-12T01:48:06;8.27;;;7.17;;
5008;SDS011;2523;51.058;6.922;2022-07-12T01:50:31;7.77;;;7.07;;
5008;SDS011;2523;51.058;6.922;2022-07-12T01:52:57;7.10;;;6.43;;
5008;SDS011;2523;51.058;6.922;2022-07-12T01:55:24;6.90;;;6.20;;
5008;SDS011;2523;51.058;6.922;2022-07-12T01:57:50;7.23;;;6.43;;
5008;SDS011;2523;51.058;6.922;2022-07-12T02:00:16;7.60;;;6.90;;
5008;SDS011;2523;51.058;6.922;2022-07-12T02:02:42;7.70;;;7.10;;
5008;SDS011;2523;51.058;6.922;2022-07-12T02:05:10;7.80;;;7.10;;
5008;SDS011;2523;51.058;6.922;2022-07-12T02:07:35;7.90;;;7.10;;
5008;SDS011;2523;51.058;6.922;2022-07-12T02:10:02;7.73;;;7.00;;
5008;SDS011;2523;51.058;6.922;2022-07-12T02:12:30;7.23;;;6.23;;
5008;SDS011;2523;51.058;6.922;2022-07-12T02:14:55;10.03;;;7.50;;
5008;SDS011;2523;51.058;6.922;2022-07-12T02:17:21;7.37;;;6.70;;
5008;SDS011;2523;51.058;6.922;2022-07-12T02:19:46;8.90;;;7.80;;
5008;SDS011;2523;51.058;6.922;2022-07-12T02:22:12;8.40;;;7.60;;
5008;SDS011;2523;51.058;6.922;2022-07-12T02:24:38;8.33;;;7.57;;
5008;SDS011;2523;51.058;6.922;2022-07-12T02:27:03;9.30;;;8.40;;
5008;SDS011;2523;51.058;6.922;2022-07-12T02:29:29;8.87;;;8.00;;
5008;SDS011;2523;51.058;6.922;2022-07-12T02:31:55;9.73;;;8.10;;
5008;SDS011;2523;51.058;6.922;2022-07-12T02:34:20;8.03;;;7.00;;
5008;SDS011;2523;51.058;6.922;2022-07-12T02:36:46;7.57;;;6.87;;
5008;SDS011;2523;51.058;6.922;2022-07-12T02:39:11;7.70;;;6.90;;
5008;SDS011;2523;51.058;6.922;2022-07-12T02:41:37;8.40;;;7.50;;
5008;SDS011;2523;51.058;6.922;2022-07-12T02:44:02;8.33;;;7.53;;
5008;SDS011;2523;51.058;6.922;2022-07-12T02:46:28;8.80;;;7.90;;
5008;SDS011;2523;51.058;6.922;2022-07-12T02:48:53;8.20;;;7.40;;
5008;SDS011;2523;51.058;6.922;2022-07-12T02:51:19;8.90;;;7.37;;
5008;SDS011;2523;51.058;6.922;2022-07-12T02:53:44;8.50;;;7.10;;
5008;SDS011;2523;51.058;6.922;2022-07-12T02:56:10;7.97;;;7.17;;
5008;SDS011;2523;51.058;6.922;2022-07-12T02:58:36;8.50;;;7.67;;
5008;SDS011;2523;51.058;6.922;2022-07-12T03:01:02;7.80;;;7.00;;
5008;SDS011;2523;51.058;6.922;2022-07-12T03:03:28;11.07;;;7.50;;
5008;SDS011;2523;51.058;6.922;2022-07-12T03:05:54;8.23;;;7.50;;
5008;SDS011;2523;51.058;6.922;2022-07-12T03:08:19;8.57;;;7.33;;
5008;SDS011;2523;51.058;6.922;2022-07-12T03:10:45;8.47;;;7.57;;
5008;SDS011;2523;51.058;6.922;2022-07-12T03:13:10;10.70;;;8.80;;
5008;SDS011;2523;51.058;6.922;2022-07-12T03:15:36;11.03;;;7.70;;
5008;SDS011;2523;51.058;6.922;2022-07-12T03:18:02;8.20;;;7.40;;
5008;SDS011;2523;51.058;6.922;2022-07-12T03:20:28;9.20;;;8.30;;
5008;SDS011;2523;51.058;6.922;2022-07-12T03:22:54;8.87;;;7.97;;
5008;SDS011;2523;51.058;6.922;2022-07-12T03:25:21;8.20;;;7.50;;
5008;SDS011;2523;51.058;6.922;2022-07-12T03:27:47;8.43;;;7.60;;
5008;SDS011;2523;51.058;6.922;2022-07-12T03:30:13;10.63;;;8.10;;
5008;SDS011;2523;51.058;6.922;2022-07-12T03:32:39;7.77;;;6.97;;
5008;SDS011;2523;51.058;6.922;2022-07-12T03:35:05;9.87;;;7.33;;
5008;SDS011;2523;51.058;6.922;2022-07-12T03:37:47;8.77;;;7.97;;
5008;SDS011;2523;51.058;6.922;2022-07-12T03:40:17;7.20;;;6.50;;
5008;SDS011;2523;51.058;6.922;2022-07-12T03:42:44;8.10;;;7.30;;
5008;SDS011;2523;51.058;6.922;2022-07-12T03:45:10;7.47;;;6.70;;
5008;SDS011;2523;51.058;6.922;2022-07-12T03:47:37;8.10;;;7.17;;
5008;SDS011;2523;51.058;6.922;2022-07-12T03:50:07;8.20;;;7.40;;
5008;SDS011;2523;51.058;6.922;2022-07-12T03:52:35;7.60;;;6.80;;
5008;SDS011;2523;51.058;6.922;2022-07-12T03:55:01;7.67;;;6.87;;
5008;SDS011;2523;51.058;6.922;2022-07-12T03:57:27;7.27;;;6.57;;
5008;SDS011;2523;51.058;6.922;2022-07-12T03:59:54;7.83;;;7.03;;
5008;SDS011;2523;51.058;6.922;2022-07-12T04:02:21;7.37;;;6.70;;
5008;SDS011;2523;51.058;6.922;2022-07-12T04:04:46;8.27;;;6.83;;
5008;SDS011;2523;51.058;6.922;2022-07-12T04:07:12;7.80;;;7.00;;
5008;SDS011;2523;51.058;6.922;2022-07-12T04:09:38;7.37;;;6.60;;
5008;SDS011;2523;51.058;6.922;2022-07-12T04:12:03;8.53;;;7.03;;
5008;SDS011;2523;51.058;6.922;2022-07-12T04:14:29;6.83;;;6.23;;
5008;SDS011;2523;51.058;6.922;2022-07-12T04:16:55;7.20;;;6.50;;
5008;SDS011;2523;51.058;6.922;2022-07-12T04:19:21;7.07;;;6.37;;
5008;SDS011;2523;51.058;6.922;2022-07-12T04:21:50;8.87;;;7.23;;
5008;SDS011;2523;51.058;6.922;2022-07-12T04:24:15;7.53;;;6.80;;
5008;SDS011;2523;51.058;6.922;2022-07-12T04:26:41;8.07;;;7.07;;
5008;SDS011;2523;51.058;6.922;2022-07-12T04:29:06;8.97;;;7.87;;
5008;SDS011;2523;51.058;6.922;2022-07-12T04:31:32;8.27;;;7.37;;
5008;SDS011;2523;51.058;6.922;2022-07-12T04:33:57;8.03;;;7.23;;
5008;SDS011;2523;51.058;6.922;2022-07-12T04:36:23;10.00;;;8.27;;
5008;SDS011;2523;51.058;6.922;2022-07-12T04:38:48;9.80;;;8.40;;
5008;SDS011;2523;51.058;6.922;2022-07-12T04:41:14;8.03;;;7.23;;
5008;SDS011;2523;51.058;6.922;2022-07-12T04:43:40;9.30;;;8.30;;
5008;SDS011;2523;51.058;6.922;2022-07-12T04:46:06;9.00;;;8.03;;
5008;SDS011;2523;51.058;6.922;2022-07-12T04:48:35;9.47;;;7.63;;
5008;SDS011;2523;51.058;6.922;2022-07-12T04:51:01;13.00;;;7.70;;
5008;SDS011;2523;51.058;6.922;2022-07-12T04:53:28;11.70;;;8.50;;
5008;SDS011;2523;51.058;6.922;2022-07-12T04:55:54;11.20;;;9.03;;
5008;SDS011;2523;51.058;6.922;2022-07-12T04:58:20;11.60;;;9.60;;
5008;SDS011;2523;51.058;6.922;2022-07-12T05:00:46;11.17;;;10.07;;
5008;SDS011;2523;51.058;6.922;2022-07-12T05:03:11;10.37;;;9.13;;
5008;SDS011;2523;51.058;6.922;2022-07-12T05:05:37;11.07;;;9.70;;
5008;SDS011;2523;51.058;6.922;2022-07-12T05:08:03;11.87;;;10.03;;
5008;SDS011;2523;51.058;6.922;2022-07-12T05:10:29;13.60;;;11.97;;
5008;SDS011;2523;51.058;6.922;2022-07-12T05:12:55;10.27;;;9.23;;
5008;SDS011;2523;51.058;6.922;2022-07-12T05:15:20;11.47;;;10.27;;
5008;SDS011;2523;51.058;6.922;2022-07-12T05:17:46;13.67;;;11.43;;
5008;SDS011;2523;51.058;6.922;2022-07-12T05:20:12;13.63;;;10.90;;
5008;SDS011;2523;51.058;6.922;2022-07-12T05:22:37;12.17;;;10.87;;
5008;SDS011;2523;51.058;6.922;2022-07-12T05:25:03;12.40;;;10.87;;
5008;SDS011;2523;51.058;6.922;2022-07-12T05:27:30;13.40;;;11.47;;
5008;SDS011;2523;51.058;6.922;2022-07-12T05:29:55;14.33;;;11.87;;
5008;SDS011;2523;51.058;6.922;2022-07-12T05:32:21;14.07;;;11.27;;
5008;SDS011;2523;51.058;6.922;2022-07-12T05:34:48;18.33;;;12.67;;
5008;SDS011;2523;51.058;6.922;2022-07-12T05:37:14;13.93;;;12.43;;
5008;SDS011;2523;51.058;6.922;2022-07-12T05:39:40;15.67;;;12.03;;
5008;SDS011;2523;51.058;6.922;2022-07-12T05:42:05;17.40;;;13.10;;
5008;SDS011;2523;51.058;6.922;2022-07-12T05:44:31;12.80;;;11.07;;
5008;SDS011;2523;51.058;6.922;2022-07-12T05:46:57;17.07;;;12.50;;
5008;SDS011;2523;51.058;6.922;2022-07-12T05:49:22;15.30;;;13.43;;
5008;SDS011;2523;51.058;6.922;2022-07-12T05:51:48;15.00;;;12.50;;
5008;SDS011;2523;51.058;6.922;2022-07-12T05:54:33;14.40;;;12.90;;
5008;SDS011;2523;51.058;6.922;2022-07-12T05:56:58;15.77;;;13.90;;
5008;SDS011;2523;51.058;6.922;2022-07-12T05:59:24;15.57;;;13.10;;
5008;SDS011;2523;51.058;6.922;2022-07-12T06:01:54;15.50;;;13.40;;
5008;SDS011;2523;51.058;6.922;2022-07-12T06:04:19;17.17;;;13.07;;
5008;SDS011;2523;51.058;6.922;2022-07-12T06:06:45;17.40;;;13.87;;
5008;SDS011;2523;51.058;6.922;2022-07-12T06:09:10;15.77;;;13.80;;
5008;SDS011;2523;51.058;6.922;2022-07-12T06:11:36;15.97;;;12.87;;
5008;SDS011;2523;51.058;6.922;2022-07-12T06:14:02;12.90;;;11.60;;
5008;SDS011;2523;51.058;6.922;2022-07-12T06:16:28;17.83;;;13.77;;
5008;SDS011;2523;51.058;6.922;2022-07-12T06:18:53;13.03;;;11.63;;
5008;SDS011;2523;51.058;6.922;2022-07-12T06:21:19;16.57;;;13.03;;
5008;SDS011;2523;51.058;6.922;2022-07-12T06:23:44;16.67;;;12.07;;
5008;SDS011;2523;51.058;6.922;2022-07-12T06:26:10;15.50;;;12.90;;
5008;SDS011;2523;51.058;6.922;2022-07-12T06:28:35;15.53;;;12.80;;
5008;SDS011;2523;51.058;6.922;2022-07-12T06:31:02;14.80;;;12.60;;
5008;SDS011;2523;51.058;6.922;2022-07-12T06:33:27;16.17;;;12.37;;
5008;SDS011;2523;51.058;6.922;2022-07-12T06:35:53;14.50;;;12.27;;
5008;SDS011;2523;51.058;6.922;2022-07-12T06:38:18;13.60;;;11.87;;
5008;SDS011;2523;51.058;6.922;2022-07-12T06:40:44;17.20;;;13.60;;
5008;SDS011;2523;51.058;6.922;2022-07-12T06:43:10;19.73;;;13.77;;
5008;SDS011;2523;51.058;6.922;2022-07-12T06:45:36;18.03;;;13.70;;
5008;SDS011;2523;51.058;6.922;2022-07-12T06:48:02;15.67;;;12.90;;
5008;SDS011;2523;51.058;6.922;2022-07-12T06:50:29;15.80;;;12.83;;
5008;SDS011;2523;51.058;6.922;2022-07-12T06:52:55;16.53;;;13.30;;
5008;SDS011;2523;51.058;6.922;2022-07-12T06:55:21;17.97;;;13.27;;
5008;SDS011;2523;51.058;6.922;2022-07-12T06:57:47;19.40;;;14.47;;
5008;SDS011;2523;51.058;6.922;2022-07-12T07:00:13;18.33;;;14.00;;
5008;SDS011;2523;51.058;6.922;2022-07-12T07:02:38;17.63;;;14.60;;
5008;SDS011;2523;51.058;6.922;2022-07-12T07:05:05;18.17;;;13.70;;
5008;SDS011;2523;51.058;6.922;2022-07-12T07:07:31;25.03;;;15.23;;
5008;SDS011;2523;51.058;6.922;2022-07-12T07:09:56;21.73;;;15.83;;
5008;SDS011;2523;51.058;6.922;2022-07-12T07:12:22;18.13;;;14.83;;
5008;SDS011;2523;51.058;6.922;2022-07-12T07:14:48;20.90;;;15.57;;
5008;SDS011;2523;51.058;6.922;2022-07-12T07:17:14;23.90;;;15.40;;
5008;SDS011;2523;51.058;6.922;2022-07-12T07:19:44;17.10;;;14.27;;
5008;SDS011;2523;51.058;6.922;2022-07-12T07:22:10;20.20;;;14.87;;
5008;SDS011;2523;51.058;6.922;2022-07-12T07:24:37;18.90;;;14.17;;
5008;SDS011;2523;51.058;6.922;2022-07-12T07:27:02;20.20;;;14.50;;
5008;SDS011;2523;51.058;6.922;2022-07-12T07:29:28;14.87;;;12.60;;
5008;SDS011;2523;51.058;6.922;2022-07-12T07:32:13;16.37;;;13.53;;
5008;SDS011;2523;51.058;6.922;2022-07-12T07:34:38;18.63;;;13.37;;
5008;SDS011;2523;51.058;6.922;2022-07-12T07:37:04;17.00;;;12.87;;
5008;SDS011;2523;51.058;6.922;2022-07-12T07:39:30;19.03;;;13.40;;
5008;SDS011;2523;51.058;6.922;2022-07-12T07:41:56;14.73;;;12.50;;
5008;SDS011;2523;51.058;6.922;2022-07-12T07:44:21;16.30;;;12.63;;
5008;SDS011;2523;51.058;6.922;2022-07-12T07:46:47;15.50;;;11.90;;
5008;SDS011;2523;51.058;6.922;2022-07-12T07:49:12;14.53;;;12.00;;
5008;SDS011;2523;51.058;6.922;2022-07-12T07:51:38;15.10;;;11.57;;
5008;SDS011;2523;51.058;6.922;2022-07-12T07:54:03;17.70;;;12.30;;
5008;SDS011;2523;51.058;6.922;2022-07-12T07:56:29;15.37;;;11.07;;
5008;SDS011;2523;51.058;6.922;2022-07-12T07:58:55;17.70;;;12.40;;
5008;SDS011;2523;51.058;6.922;2022-07-12T08:01:20;17.57;;;11.77;;
5008;SDS011;2523;51.058;6.922;2022-07-12T08:04:06;17.93;;;12.57;;
5008;SDS011;2523;51.058;6.922;2022-07-12T08:06:31;14.23;;;11.10;;
5008;SDS011;2523;51.058;6.922;2022-07-12T08:08:57;13.90;;;12.00;;
5008;SDS011;2523;51.058;6.922;2022-07-12T08:11:23;14.40;;;11.93;;
5008;SDS011;2523;51.058;6.922;2022-07-12T08:13:48;13.93;;;11.77;;
5008;SDS011;2523;51.058;6.922;2022-07-12T08:16:14;16.97;;;13.00;;
5008;SDS011;2523;51.058;6.922;2022-07-12T08:18:39;16.63;;;12.43;;
5008;SDS011;2523;51.058;6.922;2022-07-12T08:21:05;15.60;;;12.70;;
5008;SDS011;2523;51.058;6.922;2022-07-12T08:23:31;14.13;;;11.50;;
5008;SDS011;2523;51.058;6.922;2022-07-12T08:25:56;14.20;;;12.30;;
5008;SDS011;2523;51.058;6.922;2022-07-12T08:28:22;12.83;;;10.70;;
5008;SDS011;2523;51.058;6.922;2022-07-12T08:30:48;14.83;;;11.20;;
5008;SDS011;2523;51.058;6.922;2022-07-12T08:33:14;12.20;;;9.30;;
5008;SDS011;2523;51.058;6.922;2022-07-12T08:35:40;11.20;;;10.00;;
5008;SDS011;2523;51.058;6.922;2022-07-12T08:38:06;14.90;;;11.20;;
5008;SDS011;2523;51.058;6.922;2022-07-12T08:40:31;15.77;;;9.90;;
5008;SDS011;2523;51.058;6.922;2022-07-12T08:42:57;10.80;;;8.93;;
5008;SDS011;2523;51.058;6.922;2022-07-12T08:45:25;12.73;;;9.97;;
5008;SDS011;2523;51.058;6.922;2022-07-12T08:47:51;11.27;;;9.80;;
5008;SDS011;2523;51.058;6.922;2022-07-12T08:50:17;12.20;;;10.07;;
5008;SDS011;2523;51.058;6.922;2022-07-12T08:52:44;13.40;;;10.20;;
5008;SDS011;2523;51.058;6.922;2022-07-12T08:55:15;10.50;;;8.67;;
5008;SDS011;2523;51.058;6.922;2022-07-12T08:57:43;13.13;;;10.77;;
5008;SDS011;2523;51.058;6.922;2022-07-12T09:00:09;11.80;;;10.03;;
5008;SDS011;2523;51.058;6.922;2022-07-12T09:02:51;9.80;;;8.80;;
5008;SDS011;2523;51.058;6.922;2022-07-12T09:05:21;9.83;;;8.23;;
5008;SDS011;2523;51.058;6.922;2022-07-12T09:07:48;8.67;;;7.77;;
5008;SDS011;2523;51.058;6.922;2022-07-12T09:10:14;7.90;;;6.60;;
5008;SDS011;2523;51.058;6.922;2022-07-12T09:12:40;8.00;;;7.20;;
5008;SDS011;2523;51.058;6.922;2022-07-12T09:15:20;8.17;;;7.37;;
5008;SDS011;2523;51.058;6.922;2022-07-12T09:20:21;10.13;;;7.40;;
5008;SDS011;2523;51.058;6.922;2022-07-12T09:22:53;8.80;;;7.30;;
5008;SDS011;2523;51.058;6.922;2022-07-12T09:25:21;8.43;;;6.87;;
5008;SDS011;2523;51.058;6.922;2022-07-12T09:27:47;8.30;;;6.97;;
5008;SDS011;2523;51.058;6.922;2022-07-12T09:30:15;8.87;;;7.93;;
5008;SDS011;2523;51.058;6.922;2022-07-12T09:33:02;7.90;;;6.83;;
5008;SDS011;2523;51.058;6.922;2022-07-12T09:38:36;7.10;;;5.97;;
5008;SDS011;2523;51.058;6.922;2022-07-12T09:41:05;7.13;;;6.43;;
5008;SDS011;2523;51.058;6.922;2022-07-12T09:43:32;6.93;;;5.60;;
5008;SDS011;2523;51.058;6.922;2022-07-12T09:45:59;5.53;;;4.97;;
5008;SDS011;2523;51.058;6.922;2022-07-12T09:48:25;5.60;;;5.07;;
5008;SDS011;2523;51.058;6.922;2022-07-12T09:50:55;6.03;;;5.50;;
5008;SDS011;2523;51.058;6.922;2022-07-12T09:53:26;4.83;;;4.43;;
5008;SDS011;2523;51.058;6.922;2022-07-12T09:55:54;6.07;;;4.97;;
5008;SDS011;2523;51.058;6.922;2022-07-12T09:58:26;5.87;;;5.20;;
5008;SDS011;2523;51.058;6.922;2022-07-12T10:00:55;5.77;;;5.27;;
5008;SDS011;2523;51.058;6.922;2022-07-12T10:03:25;5.90;;;5.30;;
5008;SDS011;2523;51.058;6.922;2022-07-12T10:05:56;5.40;;;4.90;;
5008;SDS011;2523;51.058;6.922;2022-07-12T10:08:27;4.77;;;4.20;;
5008;SDS011;2523;51.058;6.922;2022-07-12T10:10:55;4.70;;;4.30;;
5008;SDS011;2523;51.058;6.922;2022-07-12T10:13:22;3.73;;;3.37;;
5008;SDS011;2523;51.058;6.922;2022-07-12T10:15:48;5.10;;;4.60;;
5008;SDS011;2523;51.058;6.922;2022-07-12T10:18:16;4.03;;;3.63;;
5008;SDS011;2523;51.058;6.922;2022-07-12T10:20:48;5.20;;;4.80;;
5008;SDS011;2523;51.058;6.922;2022-07-12T10:23:31;8.00;;;4.00;;
5008;SDS011;2523;51.058;6.922;2022-07-12T10:26:01;4.30;;;3.90;;
5008;SDS011;2523;51.058;6.922;2022-07-12T10:31:24;3.67;;;3.37;;
5008;SDS011;2523;51.058;6.922;2022-07-12T10:39:23;2.80;;;2.60;;
5008;SDS011;2523;51.058;6.922;2022-07-12T10:46:59;3.70;;;3.07;;
5008;SDS011;2523;51.058;6.922;2022-07-12T10:49:29;4.97;;;4.47;;
5008;SDS011;2523;51.058;6.922;2022-07-12T10:57:15;3.60;;;3.30;;
5008;SDS011;2523;51.058;6.922;2022-07-12T10:59:42;3.27;;;2.97;;
5008;SDS011;2523;51.058;6.922;2022-07-12T11:02:14;3.27;;;2.80;;
5008;SDS011;2523;51.058;6.922;2022-07-12T11:04:47;3.97;;;3.60;;
5008;SDS011;2523;51.058;6.922;2022-07-12T11:07:16;4.60;;;3.87;;
5008;SDS011;2523;51.058;6.922;2022-07-12T11:09:42;3.40;;;3.10;;
5008;SDS011;2523;51.058;6.922;2022-07-12T11:12:08;3.70;;;3.40;;
5008;SDS011;2523;51.058;6.922;2022-07-12T11:14:33;5.67;;;4.30;;
5008;SDS011;2523;51.058;6.922;2022-07-12T11:17:00;4.10;;;3.80;;
5008;SDS011;2523;51.058;6.922;2022-07-12T11:19:30;3.17;;;2.87;;
5008;SDS011;2523;51.058;6.922;2022-07-12T11:21:57;5.03;;;3.13;;
5008;SDS011;2523;51.058;6.922;2022-07-12T11:24:24;3.73;;;3.43;;
5008;SDS011;2523;51.058;6.922;2022-07-12T11:26:51;3.83;;;3.43;;
5008;SDS011;2523;51.058;6.922;2022-07-12T11:29:17;3.57;;;3.30;;
5008;SDS011;2523;51.058;6.922;2022-07-12T11:31:44;3.57;;;3.13;;
5008;SDS011;2523;51.058;6.922;2022-07-12T11:34:23;3.30;;;3.00;;
5008;SDS011;2523;51.058;6.922;2022-07-12T11:36:52;6.13;;;3.60;;
5008;SDS011;2523;51.058;6.922;2022-07-12T11:39:32;3.00;;;2.80;;
5008;SDS011;2523;51.058;6.922;2022-07-12T11:41:59;3.20;;;2.90;;
5008;SDS011;2523;51.058;6.922;2022-07-12T11:47:26;7.20;;;6.60;;
5008;SDS011;2523;51.058;6.922;2022-07-12T11:49:53;3.33;;;3.07;;
5008;SDS011;2523;51.058;6.922;2022-07-12T11:52:20;5.40;;;4.53;;
5008;SDS011;2523;51.058;6.922;2022-07-12T11:54:47;4.23;;;3.83;;
5008;SDS011;2523;51.058;6.922;2022-07-12T11:57:14;10.70;;;9.00;;
5008;SDS011;2523;51.058;6.922;2022-07-12T11:59:43;4.20;;;3.90;;
5008;SDS011;2523;51.058;6.922;2022-07-12T12:02:13;3.30;;;2.90;;
5008;SDS011;2523;51.058;6.922;2022-07-12T12:04:47;2.83;;;2.63;;
5008;SDS011;2523;51.058;6.922;2022-07-12T12:07:14;2.80;;;2.60;;
5008;SDS011;2523;51.058;6.922;2022-07-12T12:15:18;4.27;;;3.83;;
5008;SDS011;2523;51.058;6.922;2022-07-12T12:20:28;2.73;;;2.50;;
5008;SDS011;2523;51.058;6.922;2022-07-12T12:22:56;2.57;;;2.37;;
5008;SDS011;2523;51.058;6.922;2022-07-12T12:25:23;5.33;;;2.50;;
5008;SDS011;2523;51.058;6.922;2022-07-12T12:27:54;2.57;;;2.37;;
5008;SDS011;2523;51.058;6.922;2022-07-12T12:30:20;2.70;;;2.50;;
5008;SDS011;2523;51.058;6.922;2022-07-12T12:32:46;3.50;;;3.20;;
5008;SDS011;2523;51.058;6.922;2022-07-12T12:35:25;6.57;;;5.97;;
5008;SDS011;2523;51.058;6.922;2022-07-12T12:37:59;2.53;;;2.20;;
5008;SDS011;2523;51.058;6.922;2022-07-12T12:40:25;3.00;;;2.80;;
5008;SDS011;2523;51.058;6.922;2022-07-12T12:42:53;3.37;;;3.17;;
5008;SDS011;2523;51.058;6.922;2022-07-12T12:45:30;2.90;;;2.60;;
5008;SDS011;2523;51.058;6.922;2022-07-12T12:48:00;8.13;;;2.70;;
5008;SDS011;2523;51.058;6.922;2022-07-12T12:50:40;2.43;;;2.10;;
5008;SDS011;2523;51.058;6.922;2022-07-12T12:55:38;2.93;;;2.63;;
5008;SDS011;2523;51.058;6.922;2022-07-12T12:58:04;2.73;;;2.23;;
5008;SDS011;2523;51.058;6.922;2022-07-12T13:00:30;3.50;;;3.00;;
5008;SDS011;2523;51.058;6.922;2022-07-12T13:02:56;4.33;;;2.53;;
5008;SDS011;2523;51.058;6.922;2022-07-12T13:05:28;2.87;;;2.67;;
5008;SDS011;2523;51.058;6.922;2022-07-12T13:07:54;2.60;;;2.40;;
5008;SDS011;2523;51.058;6.922;2022-07-12T13:10:20;2.90;;;2.70;;
5008;SDS011;2523;51.058;6.922;2022-07-12T13:12:47;5.73;;;2.33;;
5008;SDS011;2523;51.058;6.922;2022-07-12T13:15:12;2.60;;;2.30;;
5008;SDS011;2523;51.058;6.922;2022-07-12T13:17:38;2.93;;;2.73;;
5008;SDS011;2523;51.058;6.922;2022-07-12T13:20:04;3.50;;;3.20;;
5008;SDS011;2523;51.058;6.922;2022-07-12T13:22:33;2.73;;;2.53;;
5008;SDS011;2523;51.058;6.922;2022-07-12T13:24:59;2.90;;;2.70;;
5008;SDS011;2523;51.058;6.922;2022-07-12T13:27:25;2.97;;;2.63;;
5008;SDS011;2523;51.058;6.922;2022-07-12T13:29:54;3.30;;;2.70;;
5008;SDS011;2523;51.058;6.922;2022-07-12T13:32:19;2.63;;;2.43;;
5008;SDS011;2523;51.058;6.922;2022-07-12T13:34:48;2.33;;;2.17;;
5008;SDS011;2523;51.058;6.922;2022-07-12T13:37:14;3.40;;;2.70;;
5008;SDS011;2523;51.058;6.922;2022-07-12T13:39:40;2.87;;;2.67;;
5008;SDS011;2523;51.058;6.922;2022-07-12T13:42:25;2.70;;;2.30;;
5008;SDS011;2523;51.058;6.922;2022-07-12T13:44:51;3.40;;;2.80;;
5008;SDS011;2523;51.058;6.922;2022-07-12T13:47:18;3.00;;;2.80;;
5008;SDS011;2523;51.058;6.922;2022-07-12T13:49:44;2.90;;;2.70;;
5008;SDS011;2523;51.058;6.922;2022-07-12T13:52:10;2.50;;;2.30;;
5008;SDS011;2523;51.058;6.922;2022-07-12T13:54:36;3.00;;;2.60;;
5008;SDS011;2523;51.058;6.922;2022-07-12T13:57:03;2.63;;;2.43;;
5008;SDS011;2523;51.058;6.922;2022-07-12T13:59:29;2.40;;;2.20;;
5008;SDS011;2523;51.058;6.922;2022-07-12T14:01:54;2.50;;;2.30;;
5008;SDS011;2523;51.058;6.922;2022-07-12T14:04:20;3.17;;;2.20;;
5008;SDS011;2523;51.058;6.922;2022-07-12T14:06:46;2.03;;;1.90;;
5008;SDS011;2523;51.058;6.922;2022-07-12T14:09:14;2.77;;;2.47;;
5008;SDS011;2523;51.058;6.922;2022-07-12T14:11:40;3.73;;;2.10;;
5008;SDS011;2523;51.058;6.922;2022-07-12T14:14:06;2.07;;;1.97;;
5008;SDS011;2523;51.058;6.922;2022-07-12T14:16:31;2.33;;;2.23;;
5008;SDS011;2523;51.058;6.922;2022-07-12T14:18:57;1.90;;;1.80;;
5008;SDS011;2523;51.058;6.922;2022-07-12T14:21:23;2.00;;;1.90;;
5008;SDS011;2523;51.058;6.922;2022-07-12T14:23:49;2.47;;;2.27;;
5008;SDS011;2523;51.058;6.922;2022-07-12T14:26:14;2.40;;;2.20;;
5008;SDS011;2523;51.058;6.922;2022-07-12T14:28:40;3.07;;;2.87;;
5008;SDS011;2523;51.058;6.922;2022-07-12T14:31:05;4.03;;;2.40;;
5008;SDS011;2523;51.058;6.922;2022-07-12T14:33:31;2.27;;;2.07;;
5008;SDS011;2523;51.058;6.922;2022-07-12T14:35:57;3.90;;;2.53;;
5008;SDS011;2523;51.058;6.922;2022-07-12T14:38:22;3.60;;;2.70;;
5008;SDS011;2523;51.058;6.922;2022-07-12T14:40:48;2.50;;;2.30;;
5008;SDS011;2523;51.058;6.922;2022-07-12T14:43:14;3.03;;;2.50;;
5008;SDS011;2523;51.058;6.922;2022-07-12T14:45:41;2.60;;;2.40;;
5008;SDS011;2523;51.058;6.922;2022-07-12T14:48:07;3.40;;;2.93;;
5008;SDS011;2523;51.058;6.922;2022-07-12T14:50:33;2.50;;;2.30;;
5008;SDS011;2523;51.058;6.922;2022-07-12T14:52:58;4.50;;;2.60;;
5008;SDS011;2523;51.058;6.922;2022-07-12T14:55:24;2.43;;;2.30;;
5008;SDS011;2523;51.058;6.922;2022-07-12T14:57:49;4.93;;;2.50;;
5008;SDS011;2523;51.058;6.922;2022-07-12T15:00:15;2.50;;;2.30;;
5008;SDS011;2523;51.058;6.922;2022-07-12T15:02:41;2.70;;;2.50;;
5008;SDS011;2523;51.058;6.922;2022-07-12T15:05:09;2.93;;;2.73;;
5008;SDS011;2523;51.058;6.922;2022-07-12T15:07:34;2.63;;;2.43;;
5008;SDS011;2523;51.058;6.922;2022-07-12T15:10:00;3.33;;;2.80;;
5008;SDS011;2523;51.058;6.922;2022-07-12T15:12:26;2.83;;;2.63;;
5008;SDS011;2523;51.058;6.922;2022-07-12T15:14:52;2.73;;;2.53;;
5008;SDS011;2523;51.058;6.922;2022-07-12T15:17:18;3.07;;;2.80;;
5008;SDS011;2523;51.058;6.922;2022-07-12T15:19:44;2.70;;;2.50;;
5008;SDS011;2523;51.058;6.922;2022-07-12T15:22:10;3.57;;;3.27;;
5008;SDS011;2523;51.058;6.922;2022-07-12T15:24:37;3.57;;;3.27;;
5008;SDS011;2523;51.058;6.922;2022-07-12T15:27:03;2.80;;;2.60;;
5008;SDS011;2523;51.058;6.922;2022-07-12T15:29:31;2.87;;;2.67;;
5008;SDS011;2523;51.058;6.922;2022-07-12T15:32:05;7.13;;;2.50;;
5008;SDS011;2523;51.058;6.922;2022-07-12T15:34:31;3.20;;;2.90;;
5008;SDS011;2523;51.058;6.922;2022-07-12T15:36:56;6.33;;;5.60;;
5008;SDS011;2523;51.058;6.922;2022-07-12T15:39:22;3.83;;;3.27;;
5008;SDS011;2523;51.058;6.922;2022-07-12T15:41:48;3.10;;;2.80;;
5008;SDS011;2523;51.058;6.922;2022-07-12T15:44:14;3.07;;;2.77;;